sensor_id;sensor_type;location;lat;lon;timestamp;temperature;humidity
25568;DHT22;13455;51.480;7.594;2022-11-20T00:25:14;-1.80;99.90
25568;DHT22;13455;51.480;7.594;2022-11-20T00:27:39;-1.80;99.90
25568;DHT22;13455;51.480;7.594;2022-11-20T00:30:05;-1.70;99.90
25568;DHT22;13455;51.480;7.594;2022-11-20T00:32:31;-1.70;99.90
25568;DHT22;13455;51.480;7.594;2022-11-20T00:34:57;-1.60;99.90
25568;DHT22;13455;51.480;7.594;2022-11-20T00:37:22;-1.50;99.90
25568;DHT22;13455;51.480;7.594;2022-11-20T00:39:48;-1.50;99.90
25568;DHT22;13455;51.480;7.594;2022-11-20T00:42:13;-1.40;99.90
25568;DHT22;13455;51.480;7.594;2022-11-20T03:43:37;1.30;99.90
25568;DHT22;13455;51.480;7.594;2022-11-20T03:46:04;1.20;99.90
25568;DHT22;13455;51.480;7.594;2022-11-20T03:48:30;1.20;99.90
25568;DHT22;13455;51.480;7.594;2022-11-20T03:53:41;1.30;99.90
25568;DHT22;13455;51.480;7.594;2022-11-20T03:56:08;1.30;99.90
25568;DHT22;13455;51.480;7.594;2022-11-20T03:58:37;1.30;99.90
25568;DHT22;13455;51.480;7.594;2022-11-20T04:01:10;1.30;99.90
25568;DHT22;13455;51.480;7.594;2022-11-20T04:03:37;1.40;99.90
25568;DHT22;13455;51.480;7.594;2022-11-20T04:06:08;1.40;99.90
25568;DHT22;13455;51.480;7.594;2022-11-20T04:08:35;1.40;99.90
25568;DHT22;13455;51.480;7.594;2022-11-20T04:11:17;1.50;99.90
25568;DHT22;13455;51.480;7.594;2022-11-20T04:13:47;1.50;99.90
25568;DHT22;13455;51.480;7.594;2022-11-20T04:16:13;1.50;99.90
25568;DHT22;13455;51.480;7.594;2022-11-20T04:18:39;1.50;99.90
25568;DHT22;13455;51.480;7.594;2022-11-20T04:21:05;1.50;99.90
25568;DHT22;13455;51.480;7.594;2022-11-20T04:23:31;1.50;99.90
25568;DHT22;13455;51.480;7.594;2022-11-20T04:26:08;1.50;99.90
25568;DHT22;13455;51.480;7.594;2022-11-20T04:28:35;1.50;99.90
25568;DHT22;13455;51.480;7.594;2022-11-20T04:31:12;1.60;99.90
25568;DHT22;13455;51.480;7.594;2022-11-20T04:33:38;1.60;99.90
25568;DHT22;13455;51.480;7.594;2022-11-20T04:36:07;1.60;99.90
25568;DHT22;13455;51.480;7.594;2022-11-20T04:38:33;2.00;99.90
25568;DHT22;13455;51.480;7.594;2022-11-20T04:40:59;1.50;99.90
25568;DHT22;13455;51.480;7.594;2022-11-20T04:43:26;1.50;99.90
25568;DHT22;13455;51.480;7.594;2022-11-20T04:45:55;1.50;99.90
25568;DHT22;13455;51.480;7.594;2022-11-20T04:48:22;1.50;99.90
25568;DHT22;13455;51.480;7.594;2022-11-20T04:50:48;1.50;99.90
25568;DHT22;13455;51.480;7.594;2022-11-20T04:53:14;1.50;99.90
25568;DHT22;13455;51.480;7.594;2022-11-20T04:55:39;1.40;99.90
25568;DHT22;13455;51.480;7.594;2022-11-20T04:58:05;1.40;99.90
25568;DHT22;13455;51.480;7.594;2022-11-20T05:00:31;1.40;99.90
25568;DHT22;13455;51.480;7.594;2022-11-20T05:02:57;1.50;99.90
25568;DHT22;13455;51.480;7.594;2022-11-20T05:05:22;1.40;99.90
25568;DHT22;13455;51.480;7.594;2022-11-20T05:07:48;1.40;99.90
25568;DHT22;13455;51.480;7.594;2022-11-20T05:10:13;1.50;99.90
25568;DHT22;13455;51.480;7.594;2022-11-20T05:12:39;1.50;99.90
25568;DHT22;13455;51.480;7.594;2022-11-20T05:15:05;1.50;99.90
25568;DHT22;13455;51.480;7.594;2022-11-20T05:17:31;1.50;99.90
25568;DHT22;13455;51.480;7.594;2022-11-20T05:19:56;1.50;99.90
25568;DHT22;13455;51.480;7.594;2022-11-20T05:22:22;1.50;99.90
25568;DHT22;13455;51.480;7.594;2022-11-20T05:24:48;1.50;99.90
25568;DHT22;13455;51.480;7.594;2022-11-20T05:27:14;1.40;99.90
25568;DHT22;13455;51.480;7.594;2022-11-20T05:29:39;1.50;99.90
25568;DHT22;13455;51.480;7.594;2022-11-20T05:32:05;1.50;99.90
25568;DHT22;13455;51.480;7.594;2022-11-20T05:34:32;1.50;99.90
25568;DHT22;13455;51.480;7.594;2022-11-20T05:36:58;1.40;99.90
25568;DHT22;13455;51.480;7.594;2022-11-20T05:39:23;1.40;99.90
25568;DHT22;13455;51.480;7.594;2022-11-20T05:41:49;1.40;99.90
25568;DHT22;13455;51.480;7.594;2022-11-20T05:44:35;1.40;99.90
25568;DHT22;13455;51.480;7.594;2022-11-20T05:47:00;1.30;99.90
25568;DHT22;13455;51.480;7.594;2022-11-20T05:49:26;1.30;99.90
25568;DHT22;13455;51.480;7.594;2022-11-20T05:51:51;1.30;99.90
25568;DHT22;13455;51.480;7.594;2022-11-20T05:54:17;1.30;99.90
25568;DHT22;13455;51.480;7.594;2022-11-20T05:56:43;1.30;99.90
25568;DHT22;13455;51.480;7.594;2022-11-20T05:59:08;1.20;99.90
25568;DHT22;13455;51.480;7.594;2022-11-20T06:01:34;1.10;99.90
25568;DHT22;13455;51.480;7.594;2022-11-20T06:04:01;0.80;99.90
25568;DHT22;13455;51.480;7.594;2022-11-20T06:06:27;1.10;99.90
25568;DHT22;13455;51.480;7.594;2022-11-20T06:08:54;1.10;99.90
25568;DHT22;13455;51.480;7.594;2022-11-20T06:11:20;1.10;99.90
25568;DHT22;13455;51.480;7.594;2022-11-20T06:13:46;1.00;99.90
25568;DHT22;13455;51.480;7.594;2022-11-20T06:16:15;1.00;99.90
25568;DHT22;13455;51.480;7.594;2022-11-20T06:18:40;1.00;99.90
25568;DHT22;13455;51.480;7.594;2022-11-20T06:23:36;1.00;99.90
25568;DHT22;13455;51.480;7.594;2022-11-20T06:26:07;0.90;99.90
25568;DHT22;13455;51.480;7.594;2022-11-20T06:28:33;0.90;99.90
25568;DHT22;13455;51.480;7.594;2022-11-20T06:30:59;0.90;99.90
25568;DHT22;13455;51.480;7.594;2022-11-20T06:33:25;0.80;99.90
25568;DHT22;13455;51.480;7.594;2022-11-20T06:35:51;0.80;99.90
25568;DHT22;13455;51.480;7.594;2022-11-20T06:38:17;0.80;99.90
25568;DHT22;13455;51.480;7.594;2022-11-20T06:40:43;0.70;99.90
25568;DHT22;13455;51.480;7.594;2022-11-20T06:43:12;0.70;99.90
25568;DHT22;13455;51.480;7.594;2022-11-20T06:45:37;0.70;99.90
25568;DHT22;13455;51.480;7.594;2022-11-20T06:48:03;0.60;99.90
25568;DHT22;13455;51.480;7.594;2022-11-20T06:50:29;0.60;99.90
25568;DHT22;13455;51.480;7.594;2022-11-20T06:52:55;0.60;99.90
25568;DHT22;13455;51.480;7.594;2022-11-20T06:55:20;0.60;99.90
25568;DHT22;13455;51.480;7.594;2022-11-20T06:57:46;0.60;99.90
25568;DHT22;13455;51.480;7.594;2022-11-20T07:00:12;0.50;99.90
25568;DHT22;13455;51.480;7.594;2022-11-20T07:02:38;0.50;99.90
25568;DHT22;13455;51.480;7.594;2022-11-20T07:05:04;0.50;99.90
25568;DHT22;13455;51.480;7.594;2022-11-20T07:07:30;0.50;99.90
25568;DHT22;13455;51.480;7.594;2022-11-20T07:09:55;0.50;99.90
25568;DHT22;13455;51.480;7.594;2022-11-20T07:12:21;0.50;99.90
25568;DHT22;13455;51.480;7.594;2022-11-20T07:14:46;0.40;99.90
25568;DHT22;13455;51.480;7.594;2022-11-20T07:17:12;0.40;99.90
25568;DHT22;13455;51.480;7.594;2022-11-20T07:19:38;0.40;99.90
25568;DHT22;13455;51.480;7.594;2022-11-20T07:22:04;0.40;99.90
25568;DHT22;13455;51.480;7.594;2022-11-20T07:24:29;0.20;99.90
25568;DHT22;13455;51.480;7.594;2022-11-20T07:26:55;0.60;99.90
25568;DHT22;13455;51.480;7.594;2022-11-20T07:29:21;0.40;99.90
25568;DHT22;13455;51.480;7.594;2022-11-20T07:31:46;0.40;99.90
25568;DHT22;13455;51.480;7.594;2022-11-20T07:34:12;0.30;99.90
25568;DHT22;13455;51.480;7.594;2022-11-20T07:36:37;0.40;99.90
25568;DHT22;13455;51.480;7.594;2022-11-20T07:39:03;0.40;99.90
25568;DHT22;13455;51.480;7.594;2022-11-20T07:41:29;0.40;99.90
25568;DHT22;13455;51.480;7.594;2022-11-20T07:43:55;0.40;99.90
25568;DHT22;13455;51.480;7.594;2022-11-20T07:46:20;0.40;99.90
25568;DHT22;13455;51.480;7.594;2022-11-20T07:48:46;0.40;99.90
25568;DHT22;13455;51.480;7.594;2022-11-20T07:51:11;0.50;99.90
25568;DHT22;13455;51.480;7.594;2022-11-20T07:53:38;0.50;99.90
25568;DHT22;13455;51.480;7.594;2022-11-20T07:56:04;0.50;99.90
25568;DHT22;13455;51.480;7.594;2022-11-20T07:58:30;0.60;99.90
25568;DHT22;13455;51.480;7.594;2022-11-20T08:01:01;1.00;99.90
25568;DHT22;13455;51.480;7.594;2022-11-20T08:03:27;0.60;99.90
25568;DHT22;13455;51.480;7.594;2022-11-20T08:05:53;0.60;99.90
25568;DHT22;13455;51.480;7.594;2022-11-20T08:08:18;0.70;99.90
25568;DHT22;13455;51.480;7.594;2022-11-20T08:10:44;0.70;99.90
25568;DHT22;13455;51.480;7.594;2022-11-20T08:13:10;0.70;99.90
25568;DHT22;13455;51.480;7.594;2022-11-20T08:15:54;0.80;99.90
25568;DHT22;13455;51.480;7.594;2022-11-20T08:18:19;0.80;99.90
25568;DHT22;13455;51.480;7.594;2022-11-20T08:20:45;0.80;99.90
25568;DHT22;13455;51.480;7.594;2022-11-20T08:23:11;0.80;99.90
25568;DHT22;13455;51.480;7.594;2022-11-20T08:25:37;0.80;99.90
25568;DHT22;13455;51.480;7.594;2022-11-20T08:28:08;0.80;99.90
25568;DHT22;13455;51.480;7.594;2022-11-20T08:30:35;0.90;99.90
25568;DHT22;13455;51.480;7.594;2022-11-20T08:33:06;0.90;99.90
25568;DHT22;13455;51.480;7.594;2022-11-20T08:35:37;0.90;99.90
25568;DHT22;13455;51.480;7.594;2022-11-20T08:38:06;0.90;99.90
25568;DHT22;13455;51.480;7.594;2022-11-20T08:40:32;0.90;99.90
25568;DHT22;13455;51.480;7.594;2022-11-20T08:42:58;1.00;99.90
25568;DHT22;13455;51.480;7.594;2022-11-20T08:45:23;1.00;99.90
25568;DHT22;13455;51.480;7.594;2022-11-20T08:47:49;1.10;99.90
25568;DHT22;13455;51.480;7.594;2022-11-20T08:50:16;1.00;99.90
25568;DHT22;13455;51.480;7.594;2022-11-20T08:52:43;1.10;99.90
25568;DHT22;13455;51.480;7.594;2022-11-20T08:55:09;1.20;99.90
25568;DHT22;13455;51.480;7.594;2022-11-20T08:57:36;1.30;99.90
25568;DHT22;13455;51.480;7.594;2022-11-20T09:00:04;1.20;99.90
25568;DHT22;13455;51.480;7.594;2022-11-20T09:02:30;1.20;99.90
25568;DHT22;13455;51.480;7.594;2022-11-20T09:04:58;1.20;99.90
25568;DHT22;13455;51.480;7.594;2022-11-20T09:07:23;0.90;99.90
25568;DHT22;13455;51.480;7.594;2022-11-20T09:09:49;1.40;99.90
25568;DHT22;13455;51.480;7.594;2022-11-20T09:12:14;1.40;99.90
25568;DHT22;13455;51.480;7.594;2022-11-20T09:14:40;1.40;99.90
25568;DHT22;13455;51.480;7.594;2022-11-20T09:17:06;1.40;99.90
25568;DHT22;13455;51.480;7.594;2022-11-20T09:19:33;1.40;99.90
25568;DHT22;13455;51.480;7.594;2022-11-20T09:21:59;1.50;99.90
25568;DHT22;13455;51.480;7.594;2022-11-20T09:24:26;1.50;99.90
25568;DHT22;13455;51.480;7.594;2022-11-20T09:26:51;1.50;99.90
25568;DHT22;13455;51.480;7.594;2022-11-20T09:29:17;1.60;99.90
25568;DHT22;13455;51.480;7.594;2022-11-20T09:31:43;1.60;99.90
25568;DHT22;13455;51.480;7.594;2022-11-20T09:34:08;1.70;99.90
25568;DHT22;13455;51.480;7.594;2022-11-20T09:36:35;1.70;99.90
25568;DHT22;13455;51.480;7.594;2022-11-20T09:39:00;1.70;99.90
25568;DHT22;13455;51.480;7.594;2022-11-20T09:41:52;1.70;99.90
25568;DHT22;13455;51.480;7.594;2022-11-20T09:44:27;1.80;99.90
25568;DHT22;13455;51.480;7.594;2022-11-20T09:55:13;2.00;99.90
25568;DHT22;13455;51.480;7.594;2022-11-20T09:57:43;2.10;99.90
25568;DHT22;13455;51.480;7.594;2022-11-20T10:00:12;2.20;99.90
25568;DHT22;13455;51.480;7.594;2022-11-20T10:02:45;2.20;99.90
25568;DHT22;13455;51.480;7.594;2022-11-20T10:05:35;2.30;99.90
25568;DHT22;13455;51.480;7.594;2022-11-20T10:32:36;3.20;99.90
25568;DHT22;13455;51.480;7.594;2022-11-20T10:37:32;3.40;99.90
25568;DHT22;13455;51.480;7.594;2022-11-20T10:40:17;3.70;99.90
25568;DHT22;13455;51.480;7.594;2022-11-20T10:42:46;3.80;99.90
25568;DHT22;13455;51.480;7.594;2022-11-20T10:50:37;4.20;99.90
25568;DHT22;13455;51.480;7.594;2022-11-20T10:53:14;4.30;99.90
25568;DHT22;13455;51.480;7.594;2022-11-20T10:58:28;4.40;99.90
25568;DHT22;13455;51.480;7.594;2022-11-20T11:01:25;4.50;99.90
25568;DHT22;13455;51.480;7.594;2022-11-20T11:06:28;5.00;99.90
25568;DHT22;13455;51.480;7.594;2022-11-20T11:08:59;5.10;99.90
25568;DHT22;13455;51.480;7.594;2022-11-20T11:11:29;5.00;99.90
25568;DHT22;13455;51.480;7.594;2022-11-20T11:14:13;5.10;99.90
25568;DHT22;13455;51.480;7.594;2022-11-20T11:16:53;5.10;99.90
25568;DHT22;13455;51.480;7.594;2022-11-20T11:19:19;5.20;99.90
25568;DHT22;13455;51.480;7.594;2022-11-20T11:22:10;5.20;99.90
25568;DHT22;13455;51.480;7.594;2022-11-20T11:24:51;5.30;99.90
25568;DHT22;13455;51.480;7.594;2022-11-20T11:27:17;5.30;99.90
25568;DHT22;13455;51.480;7.594;2022-11-20T11:29:43;5.40;99.90
25568;DHT22;13455;51.480;7.594;2022-11-20T11:32:18;5.40;99.90
25568;DHT22;13455;51.480;7.594;2022-11-20T11:35:02;5.40;99.90
25568;DHT22;13455;51.480;7.594;2022-11-20T11:37:37;5.40;99.90
25568;DHT22;13455;51.480;7.594;2022-11-20T11:40:04;5.40;99.90
25568;DHT22;13455;51.480;7.594;2022-11-20T11:42:31;5.40;99.90
25568;DHT22;13455;51.480;7.594;2022-11-20T11:44:59;6.20;99.90
25568;DHT22;13455;51.480;7.594;2022-11-20T11:55:27;5.40;99.90
25568;DHT22;13455;51.480;7.594;2022-11-20T11:58:00;5.40;99.90
25568;DHT22;13455;51.480;7.594;2022-11-20T12:00:29;5.50;99.90
25568;DHT22;13455;51.480;7.594;2022-11-20T12:03:23;5.50;99.90
25568;DHT22;13455;51.480;7.594;2022-11-20T12:05:50;5.70;99.90
25568;DHT22;13455;51.480;7.594;2022-11-20T12:08:32;5.70;99.90
25568;DHT22;13455;51.480;7.594;2022-11-20T12:14:00;5.70;99.90
25568;DHT22;13455;51.480;7.594;2022-11-20T12:16:33;5.70;99.90
25568;DHT22;13455;51.480;7.594;2022-11-20T12:19:00;5.80;99.90
25568;DHT22;13455;51.480;7.594;2022-11-20T12:30:21;6.00;99.90
25568;DHT22;13455;51.480;7.594;2022-11-20T12:33:49;6.20;99.90
25568;DHT22;13455;51.480;7.594;2022-11-20T12:44:32;6.80;99.90
25568;DHT22;13455;51.480;7.594;2022-11-20T12:52:24;6.80;99.90
25568;DHT22;13455;51.480;7.594;2022-11-20T13:00:25;6.50;99.90
25568;DHT22;13455;51.480;7.594;2022-11-20T13:05:46;6.30;99.90
25568;DHT22;13455;51.480;7.594;2022-11-20T13:08:40;6.20;99.90
25568;DHT22;13455;51.480;7.594;2022-11-20T13:11:25;6.10;99.90
25568;DHT22;13455;51.480;7.594;2022-11-20T13:19:16;6.00;99.90
25568;DHT22;13455;51.480;7.594;2022-11-20T13:21:47;5.90;99.90
25568;DHT22;13455;51.480;7.594;2022-11-20T13:27:21;5.70;99.90
25568;DHT22;13455;51.480;7.594;2022-11-20T13:29:47;5.50;99.90
25568;DHT22;13455;51.480;7.594;2022-11-20T13:32:24;5.50;99.90
25568;DHT22;13455;51.480;7.594;2022-11-20T13:34:57;5.50;99.90
25568;DHT22;13455;51.480;7.594;2022-11-20T13:37:34;5.50;99.90
25568;DHT22;13455;51.480;7.594;2022-11-20T13:43:08;5.40;99.90
25568;DHT22;13455;51.480;7.594;2022-11-20T13:45:36;5.40;99.90
25568;DHT22;13455;51.480;7.594;2022-11-20T13:48:20;5.30;99.90
25568;DHT22;13455;51.480;7.594;2022-11-20T14:01:56;5.20;99.90
25568;DHT22;13455;51.480;7.594;2022-11-20T14:04:36;5.00;99.90
25568;DHT22;13455;51.480;7.594;2022-11-20T14:07:06;4.90;99.90
25568;DHT22;13455;51.480;7.594;2022-11-20T14:09:33;4.90;99.90
25568;DHT22;13455;51.480;7.594;2022-11-20T14:11:59;5.10;99.90
25568;DHT22;13455;51.480;7.594;2022-11-20T14:14:26;4.80;99.90
25568;DHT22;13455;51.480;7.594;2022-11-20T14:17:04;4.90;99.90
25568;DHT22;13455;51.480;7.594;2022-11-20T14:19:30;4.80;99.90
25568;DHT22;13455;51.480;7.594;2022-11-20T14:22:22;4.80;99.90
25568;DHT22;13455;51.480;7.594;2022-11-20T14:25:00;4.70;99.90
25568;DHT22;13455;51.480;7.594;2022-11-20T14:27:26;4.70;99.90
25568;DHT22;13455;51.480;7.594;2022-11-20T14:29:51;4.70;99.90
25568;DHT22;13455;51.480;7.594;2022-11-20T14:32:19;4.60;99.90
25568;DHT22;13455;51.480;7.594;2022-11-20T14:34:48;4.70;99.90
25568;DHT22;13455;51.480;7.594;2022-11-20T14:37:24;4.60;99.90
25568;DHT22;13455;51.480;7.594;2022-11-20T14:39:53;4.50;99.90
25568;DHT22;13455;51.480;7.594;2022-11-20T14:42:24;4.50;99.90
25568;DHT22;13455;51.480;7.594;2022-11-20T14:44:52;4.40;99.90
25568;DHT22;13455;51.480;7.594;2022-11-20T14:54:53;4.50;99.90
25568;DHT22;13455;51.480;7.594;2022-11-20T14:57:29;4.40;99.90
25568;DHT22;13455;51.480;7.594;2022-11-20T15:02:42;4.30;99.90
25568;DHT22;13455;51.480;7.594;2022-11-20T15:05:08;4.30;99.90
25568;DHT22;13455;51.480;7.594;2022-11-20T15:07:36;4.30;99.90
25568;DHT22;13455;51.480;7.594;2022-11-20T15:10:07;4.30;99.90
25568;DHT22;13455;51.480;7.594;2022-11-20T15:12:36;4.30;99.90
25568;DHT22;13455;51.480;7.594;2022-11-20T15:15:03;4.30;99.90
25568;DHT22;13455;51.480;7.594;2022-11-20T15:17:31;4.20;99.90
25568;DHT22;13455;51.480;7.594;2022-11-20T15:19:58;4.20;99.90
25568;DHT22;13455;51.480;7.594;2022-11-20T15:22:25;4.30;99.90
25568;DHT22;13455;51.480;7.594;2022-11-20T15:24:50;4.30;99.90
25568;DHT22;13455;51.480;7.594;2022-11-20T15:27:16;4.30;99.90
25568;DHT22;13455;51.480;7.594;2022-11-20T15:29:42;4.30;99.90
25568;DHT22;13455;51.480;7.594;2022-11-20T15:32:08;4.50;99.90
25568;DHT22;13455;51.480;7.594;2022-11-20T15:37:00;4.40;99.90
25568;DHT22;13455;51.480;7.594;2022-11-20T15:39:26;4.40;99.90
25568;DHT22;13455;51.480;7.594;2022-11-20T15:41:51;4.30;99.90
25568;DHT22;13455;51.480;7.594;2022-11-20T15:44:17;4.80;99.90
25568;DHT22;13455;51.480;7.594;2022-11-20T15:46:43;4.20;99.90
25568;DHT22;13455;51.480;7.594;2022-11-20T15:49:15;4.20;99.90
25568;DHT22;13455;51.480;7.594;2022-11-20T15:51:44;4.10;99.90
25568;DHT22;13455;51.480;7.594;2022-11-20T15:54:16;4.40;99.90
25568;DHT22;13455;51.480;7.594;2022-11-20T15:56:48;4.10;99.90
25568;DHT22;13455;51.480;7.594;2022-11-20T15:59:14;4.10;99.90
25568;DHT22;13455;51.480;7.594;2022-11-20T16:01:41;4.10;99.90
25568;DHT22;13455;51.480;7.594;2022-11-20T16:04:12;4.10;99.90
25568;DHT22;13455;51.480;7.594;2022-11-20T16:06:38;4.10;99.90
25568;DHT22;13455;51.480;7.594;2022-11-20T16:09:03;4.10;99.90
25568;DHT22;13455;51.480;7.594;2022-11-20T16:11:29;4.10;99.90
25568;DHT22;13455;51.480;7.594;2022-11-20T16:13:55;4.10;99.90
25568;DHT22;13455;51.480;7.594;2022-11-20T16:16:39;4.30;99.90
25568;DHT22;13455;51.480;7.594;2022-11-20T16:24:07;4.40;99.90
25568;DHT22;13455;51.480;7.594;2022-11-20T16:26:34;4.20;99.90
25568;DHT22;13455;51.480;7.594;2022-11-20T16:38:53;4.00;99.90
25568;DHT22;13455;51.480;7.594;2022-11-20T16:41:19;4.40;99.90
25568;DHT22;13455;51.480;7.594;2022-11-20T16:43:47;4.10;99.90
25568;DHT22;13455;51.480;7.594;2022-11-20T16:46:14;4.10;99.90
25568;DHT22;13455;51.480;7.594;2022-11-20T16:48:39;4.40;99.90
25568;DHT22;13455;51.480;7.594;2022-11-20T16:51:08;4.10;99.90
25568;DHT22;13455;51.480;7.594;2022-11-20T17:01:15;4.10;99.90
25568;DHT22;13455;51.480;7.594;2022-11-20T17:13:31;4.30;99.90
25568;DHT22;13455;51.480;7.594;2022-11-20T17:16:01;4.40;99.90
25568;DHT22;13455;51.480;7.594;2022-11-20T17:18:27;4.70;99.90
25568;DHT22;13455;51.480;7.594;2022-11-20T17:50:09;4.50;99.90
25568;DHT22;13455;51.480;7.594;2022-11-20T17:52:34;4.60;99.90
25568;DHT22;13455;51.480;7.594;2022-11-20T17:55:00;4.70;99.90
25568;DHT22;13455;51.480;7.594;2022-11-20T17:57:25;4.60;99.90
25568;DHT22;13455;51.480;7.594;2022-11-20T18:00:10;4.60;99.90
25568;DHT22;13455;51.480;7.594;2022-11-20T18:02:37;4.70;99.90
25568;DHT22;13455;51.480;7.594;2022-11-20T18:05:03;4.70;99.90
25568;DHT22;13455;51.480;7.594;2022-11-20T18:07:29;4.60;99.90
25568;DHT22;13455;51.480;7.594;2022-11-20T18:09:54;4.70;99.90
25568;DHT22;13455;51.480;7.594;2022-11-20T18:12:20;4.70;99.90
25568;DHT22;13455;51.480;7.594;2022-11-20T18:14:46;4.70;99.90
25568;DHT22;13455;51.480;7.594;2022-11-20T18:17:13;4.70;99.90
25568;DHT22;13455;51.480;7.594;2022-11-20T18:19:41;4.70;99.90
25568;DHT22;13455;51.480;7.594;2022-11-20T18:22:07;4.80;99.90
25568;DHT22;13455;51.480;7.594;2022-11-20T18:24:33;4.80;99.90
25568;DHT22;13455;51.480;7.594;2022-11-20T18:27:05;4.80;99.90
25568;DHT22;13455;51.480;7.594;2022-11-20T18:29:31;4.80;99.90
25568;DHT22;13455;51.480;7.594;2022-11-20T18:31:58;4.80;99.90
25568;DHT22;13455;51.480;7.594;2022-11-20T18:34:24;5.00;99.90
25568;DHT22;13455;51.480;7.594;2022-11-20T18:36:51;4.90;99.90
25568;DHT22;13455;51.480;7.594;2022-11-20T18:44:29;5.20;99.90
25568;DHT22;13455;51.480;7.594;2022-11-20T18:47:25;5.40;99.90
25568;DHT22;13455;51.480;7.594;2022-11-20T18:49:54;5.20;99.90
25568;DHT22;13455;51.480;7.594;2022-11-20T18:57:23;5.00;99.90
25568;DHT22;13455;51.480;7.594;2022-11-20T19:02:17;5.10;99.90
25568;DHT22;13455;51.480;7.594;2022-11-20T19:04:43;5.20;99.90
25568;DHT22;13455;51.480;7.594;2022-11-20T19:07:09;4.90;99.90
25568;DHT22;13455;51.480;7.594;2022-11-20T19:09:39;5.10;99.90
25568;DHT22;13455;51.480;7.594;2022-11-20T19:12:07;5.10;99.90
25568;DHT22;13455;51.480;7.594;2022-11-20T21:09:38;5.80;99.90
25568;DHT22;13455;51.480;7.594;2022-11-20T21:12:04;5.80;99.90
25568;DHT22;13455;51.480;7.594;2022-11-20T21:14:30;5.80;99.90
25568;DHT22;13455;51.480;7.594;2022-11-20T21:16:56;5.70;99.90
25568;DHT22;13455;51.480;7.594;2022-11-20T21:19:22;5.70;99.90
25568;DHT22;13455;51.480;7.594;2022-11-20T21:21:48;5.60;99.90
25568;DHT22;13455;51.480;7.594;2022-11-20T21:24:31;5.60;99.90
25568;DHT22;13455;51.480;7.594;2022-11-20T21:26:57;5.50;99.90
25568;DHT22;13455;51.480;7.594;2022-11-20T21:29:24;5.50;99.90
25568;DHT22;13455;51.480;7.594;2022-11-20T21:31:50;5.40;99.90
25568;DHT22;13455;51.480;7.594;2022-11-20T21:34:16;5.40;99.90
25568;DHT22;13455;51.480;7.594;2022-11-20T21:36:42;5.70;99.90
25568;DHT22;13455;51.480;7.594;2022-11-20T21:39:09;5.40;99.90
25568;DHT22;13455;51.480;7.594;2022-11-20T21:41:35;5.40;99.90
25568;DHT22;13455;51.480;7.594;2022-11-20T21:44:02;5.40;99.90
25568;DHT22;13455;51.480;7.594;2022-11-20T21:46:32;5.40;99.90
25568;DHT22;13455;51.480;7.594;2022-11-20T21:48:58;5.30;99.90
25568;DHT22;13455;51.480;7.594;2022-11-20T21:51:25;5.30;99.90
25568;DHT22;13455;51.480;7.594;2022-11-20T21:53:54;5.30;99.90
25568;DHT22;13455;51.480;7.594;2022-11-20T21:56:23;5.20;99.90
25568;DHT22;13455;51.480;7.594;2022-11-20T21:58:49;5.10;99.90
25568;DHT22;13455;51.480;7.594;2022-11-20T22:01:18;5.10;99.90
25568;DHT22;13455;51.480;7.594;2022-11-20T22:03:48;5.10;99.90
25568;DHT22;13455;51.480;7.594;2022-11-20T22:06:15;5.10;99.90
25568;DHT22;13455;51.480;7.594;2022-11-20T22:08:41;5.10;99.90
25568;DHT22;13455;51.480;7.594;2022-11-20T22:11:09;5.00;99.90
25568;DHT22;13455;51.480;7.594;2022-11-20T22:13:35;5.00;99.90
25568;DHT22;13455;51.480;7.594;2022-11-20T22:16:20;4.90;99.90
25568;DHT22;13455;51.480;7.594;2022-11-20T22:18:48;4.90;99.90
25568;DHT22;13455;51.480;7.594;2022-11-20T22:21:16;4.90;99.90
25568;DHT22;13455;51.480;7.594;2022-11-20T22:23:42;4.80;99.90
25568;DHT22;13455;51.480;7.594;2022-11-20T22:26:10;4.80;99.90
25568;DHT22;13455;51.480;7.594;2022-11-20T22:28:37;4.70;99.90
25568;DHT22;13455;51.480;7.594;2022-11-20T22:31:05;4.70;99.90
25568;DHT22;13455;51.480;7.594;2022-11-20T22:33:32;4.70;99.90
25568;DHT22;13455;51.480;7.594;2022-11-20T22:36:20;4.60;99.90
25568;DHT22;13455;51.480;7.594;2022-11-20T22:38:44;4.60;99.90
25568;DHT22;13455;51.480;7.594;2022-11-20T22:41:16;4.60;99.90
25568;DHT22;13455;51.480;7.594;2022-11-20T22:43:42;4.50;99.90
25568;DHT22;13455;51.480;7.594;2022-11-20T22:46:14;4.50;99.90
25568;DHT22;13455;51.480;7.594;2022-11-20T22:48:51;4.50;99.90
25568;DHT22;13455;51.480;7.594;2022-11-20T22:51:18;4.50;99.90
25568;DHT22;13455;51.480;7.594;2022-11-20T22:53:47;4.50;99.90
25568;DHT22;13455;51.480;7.594;2022-11-20T22:56:13;4.50;99.90
25568;DHT22;13455;51.480;7.594;2022-11-20T22:58:40;4.40;99.90
25568;DHT22;13455;51.480;7.594;2022-11-20T23:01:07;4.40;99.90
25568;DHT22;13455;51.480;7.594;2022-11-20T23:03:33;4.30;99.90
25568;DHT22;13455;51.480;7.594;2022-11-20T23:05:59;4.30;99.90
25568;DHT22;13455;51.480;7.594;2022-11-20T23:08:25;4.30;99.90
25568;DHT22;13455;51.480;7.594;2022-11-20T23:10:51;4.30;99.90
25568;DHT22;13455;51.480;7.594;2022-11-20T23:13:16;4.20;99.90
25568;DHT22;13455;51.480;7.594;2022-11-20T23:15:42;4.20;99.90
25568;DHT22;13455;51.480;7.594;2022-11-20T23:18:07;4.20;99.90
25568;DHT22;13455;51.480;7.594;2022-11-20T23:20:36;4.20;99.90
25568;DHT22;13455;51.480;7.594;2022-11-20T23:23:02;4.20;99.90
25568;DHT22;13455;51.480;7.594;2022-11-20T23:25:27;4.20;99.90
25568;DHT22;13455;51.480;7.594;2022-11-20T23:27:53;4.10;99.90
25568;DHT22;13455;51.480;7.594;2022-11-20T23:30:19;4.10;99.90
25568;DHT22;13455;51.480;7.594;2022-11-20T23:32:45;4.10;99.90
25568;DHT22;13455;51.480;7.594;2022-11-20T23:35:11;4.10;99.90
25568;DHT22;13455;51.480;7.594;2022-11-20T23:37:36;4.10;99.90
25568;DHT22;13455;51.480;7.594;2022-11-20T23:40:02;4.00;99.90
25568;DHT22;13455;51.480;7.594;2022-11-20T23:42:28;4.00;99.90
25568;DHT22;13455;51.480;7.594;2022-11-20T23:44:54;3.90;99.90
25568;DHT22;13455;51.480;7.594;2022-11-20T23:47:19;3.90;99.90
25568;DHT22;13455;51.480;7.594;2022-11-20T23:49:45;3.90;99.90
25568;DHT22;13455;51.480;7.594;2022-11-20T23:52:10;3.90;99.90
25568;DHT22;13455;51.480;7.594;2022-11-20T23:54:36;3.90;99.90
25568;DHT22;13455;51.480;7.594;2022-11-20T23:57:01;3.90;99.90
25568;DHT22;13455;51.480;7.594;2022-11-20T23:59:27;3.90;99.90
